createdAt,value
2019-06-08T00:00:59.874Z,18.62
2019-06-08T00:01:59.890Z,18.5
2019-06-08T00:04:59.963Z,18.58
2019-06-08T00:05:59.990Z,18.52
2019-06-08T00:07:00.007Z,18.58
2019-06-08T00:08:00.050Z,18.54
2019-06-08T00:09:00.117Z,18.52
2019-06-08T00:10:00.099Z,18.5
2019-06-08T00:11:00.103Z,18.45
2019-06-08T00:12:00.136Z,18.37
2019-06-08T00:13:00.150Z,18.37
2019-06-08T00:14:00.185Z,18.36
2019-06-08T00:15:00.197Z,18.41
2019-06-08T00:16:15.629Z,18.39
2019-06-08T00:17:00.253Z,18.44
2019-06-08T00:18:01.866Z,18.37
2019-06-08T00:19:00.292Z,18.37
2019-06-08T00:20:00.077Z,18.41
2019-06-08T00:21:00.340Z,18.36
2019-06-08T00:22:00.368Z,18.51
2019-06-08T00:23:00.450Z,18.45
2019-06-08T00:24:00.412Z,18.44
2019-06-08T00:25:00.517Z,18.41
2019-06-08T00:26:00.516Z,18.41
2019-06-08T00:27:00.492Z,18.42
2019-06-08T00:28:00.516Z,18.35
2019-06-08T00:29:00.538Z,18.32
2019-06-08T00:30:15.216Z,18.21
2019-06-08T00:31:00.577Z,18.3
2019-06-08T00:32:16.496Z,18.33
2019-06-08T00:33:00.625Z,18.41
2019-06-08T00:34:00.688Z,18.39
2019-06-08T00:35:00.674Z,18.39
2019-06-08T00:37:00.718Z,18.3
2019-06-08T00:38:00.857Z,18.35
2019-06-08T00:39:00.770Z,18.29
2019-06-08T00:40:00.568Z,18.32
2019-06-08T00:41:00.838Z,18.15
2019-06-08T00:42:00.836Z,18.14
2019-06-08T00:43:15.525Z,18.3
2019-06-08T00:44:00.883Z,18.14
2019-06-08T00:45:00.910Z,18.12
2019-06-08T00:46:00.951Z,18.12
2019-06-08T00:47:00.959Z,18.27
2019-06-08T00:48:16.712Z,18.27
2019-06-08T00:49:01.003Z,18.33
2019-06-08T00:50:01.033Z,18.36
2019-06-08T00:51:01.055Z,18.27
2019-06-08T00:52:01.095Z,18.27
2019-06-08T00:53:01.097Z,18.26
2019-06-08T00:54:17.260Z,18.12
2019-06-08T00:56:01.166Z,18.11
2019-06-08T00:57:01.192Z,18.1
2019-06-08T00:58:01.219Z,18.2
2019-06-08T00:59:01.255Z,18.17
2019-06-08T01:00:09.673Z,18.12
2019-06-08T01:01:01.128Z,18.15
2019-06-08T01:02:01.064Z,18.21
2019-06-08T01:04:16.021Z,18.21
2019-06-08T01:05:01.395Z,18.3
2019-06-08T01:06:01.488Z,18.27
2019-06-08T01:07:01.428Z,18.36
2019-06-08T01:08:01.451Z,18.26
2019-06-08T01:09:01.476Z,18.33
2019-06-08T01:10:01.498Z,18.36
2019-06-08T01:11:16.255Z,18.39
2019-06-08T01:12:01.552Z,18.51
2019-06-08T01:13:01.572Z,18.41
2019-06-08T01:14:01.347Z,18.52
2019-06-08T01:15:01.764Z,18.5
2019-06-08T01:16:16.302Z,18.62
2019-06-08T01:17:01.667Z,18.66
2019-06-08T01:18:08.615Z,18.72
2019-06-08T01:19:16.377Z,18.84
2019-06-08T01:20:01.782Z,18.9
2019-06-08T01:21:01.758Z,18.98
2019-06-08T01:22:01.786Z,19.08
2019-06-08T01:23:01.810Z,19.22
2019-06-08T01:24:01.855Z,19.18
2019-06-08T01:25:01.874Z,19.18
2019-06-08T01:26:01.873Z,19.37
2019-06-08T01:27:01.679Z,19.29
2019-06-08T01:28:01.924Z,19.39
2019-06-08T01:30:02.078Z,19.33
2019-06-08T01:31:02.125Z,19.4
2019-06-08T01:32:02.019Z,19.44
2019-06-08T01:33:02.043Z,19.48
2019-06-08T01:34:02.072Z,19.51
2019-06-08T01:35:02.100Z,19.48
2019-06-08T01:36:02.112Z,19.55
2019-06-08T01:37:02.154Z,19.61
2019-06-08T01:38:02.167Z,19.56
2019-06-08T01:39:02.183Z,19.54
2019-06-08T01:40:02.206Z,19.65
2019-06-08T01:41:02.241Z,19.56
2019-06-08T01:42:02.264Z,19.76
2019-06-08T01:43:02.284Z,19.71
2019-06-08T01:44:02.306Z,19.62
2019-06-08T01:45:16.991Z,19.76
2019-06-08T01:46:02.348Z,19.77
2019-06-08T01:47:17.039Z,19.8
2019-06-08T01:48:15.882Z,19.8
2019-06-08T01:49:02.418Z,19.84
2019-06-08T01:50:02.200Z,19.86
2019-06-08T01:51:17.133Z,20.01
2019-06-08T01:52:02.499Z,20.1
2019-06-08T01:53:02.519Z,20.03
2019-06-08T01:54:02.545Z,20.13
2019-06-08T01:55:02.572Z,20.13
2019-06-08T01:56:02.584Z,20.14
2019-06-08T01:57:02.610Z,20.16
2019-06-08T01:58:02.648Z,20.21
2019-06-08T01:59:02.660Z,20.21
2019-06-08T02:00:28.582Z,20.21
2019-06-08T02:01:02.712Z,20.16
2019-06-08T02:02:02.732Z,20.11
2019-06-08T02:03:02.774Z,20.21
2019-06-08T02:04:02.778Z,20.14
2019-06-08T02:05:17.464Z,20.16
2019-06-08T02:06:02.876Z,20.1
2019-06-08T02:07:17.520Z,20.16
2019-06-08T02:09:02.944Z,20.23
2019-06-08T02:10:02.682Z,20.2
2019-06-08T02:11:02.964Z,20.2
2019-06-08T02:12:02.995Z,20.18
2019-06-08T02:13:17.697Z,20.24
2019-06-08T02:14:03.017Z,20.17
2019-06-08T02:15:03.099Z,20.14
2019-06-08T02:16:03.065Z,20.13
2019-06-08T02:18:03.111Z,19.92
2019-06-08T02:19:17.800Z,19.92
2019-06-08T02:20:17.822Z,19.8
2019-06-08T02:21:03.184Z,19.78
2019-06-08T02:22:03.207Z,19.76
2019-06-08T02:23:17.895Z,19.81
2019-06-08T02:25:17.952Z,19.61
2019-06-08T02:26:03.299Z,19.58
2019-06-08T02:27:03.328Z,19.58
2019-06-08T02:29:03.425Z,19.54
2019-06-08T02:31:03.425Z,19.41
2019-06-08T02:32:03.449Z,19.41
2019-06-08T02:33:03.527Z,19.36
2019-06-08T02:34:03.507Z,19.41
2019-06-08T02:35:03.517Z,19.32
2019-06-08T02:36:03.552Z,19.25
2019-06-08T02:37:03.579Z,19.31
2019-06-08T02:38:03.625Z,19.21
2019-06-08T02:39:18.280Z,19.23
2019-06-08T02:40:03.637Z,19.21
2019-06-08T02:41:03.680Z,19.22
2019-06-08T02:42:03.701Z,19.21
2019-06-08T02:43:03.731Z,19.18
2019-06-08T02:44:03.744Z,19.13
2019-06-08T02:45:03.509Z,19.18
2019-06-08T02:46:03.799Z,19.02
2019-06-08T02:47:03.832Z,19.07
2019-06-08T02:48:03.850Z,19.02
2019-06-08T02:49:09.315Z,19.14
2019-06-08T02:50:03.882Z,19.19
2019-06-08T02:51:03.926Z,19.13
2019-06-08T02:52:03.964Z,19.11
2019-06-08T02:53:03.949Z,19.16
2019-06-08T02:55:04.000Z,19.18
2019-06-08T02:56:04.024Z,19.1
2019-06-08T02:57:04.044Z,19.11
2019-06-08T02:58:04.061Z,18.99
2019-06-08T02:59:04.088Z,19.02
2019-06-08T03:00:04.141Z,18.91
2019-06-08T03:01:04.134Z,18.94
2019-06-08T03:02:18.822Z,18.92
2019-06-08T03:03:04.179Z,19
2019-06-08T03:04:04.217Z,18.87
2019-06-08T03:05:04.226Z,19
2019-06-08T03:06:04.264Z,19.02
2019-06-08T03:07:04.314Z,19
2019-06-08T03:08:04.067Z,19.06
2019-06-08T03:09:04.323Z,19.02
2019-06-08T03:10:04.365Z,19.14
2019-06-08T03:11:04.368Z,19.02
2019-06-08T03:12:04.404Z,19
2019-06-08T03:13:19.086Z,19.14
2019-06-08T03:14:04.470Z,19.14
2019-06-08T03:15:04.219Z,19.1
2019-06-08T03:16:19.164Z,19.04
2019-06-08T03:17:04.511Z,19.04
2019-06-08T03:18:04.537Z,19.08
2019-06-08T03:19:25.531Z,19
2019-06-08T03:20:04.596Z,19.02
2019-06-08T03:21:04.640Z,19.04
2019-06-08T03:22:04.634Z,19.02
2019-06-08T03:23:04.661Z,19.07
2019-06-08T03:24:04.689Z,19.08
2019-06-08T03:25:19.370Z,19.06
2019-06-08T03:26:19.409Z,19.11
2019-06-08T03:27:04.760Z,19.07
2019-06-08T03:28:04.774Z,19.04
2019-06-08T03:29:04.793Z,19.08
2019-06-08T03:30:19.690Z,18.95
2019-06-08T03:31:04.659Z,18.98
2019-06-08T03:32:04.957Z,19.02
2019-06-08T03:33:04.936Z,18.91
2019-06-08T03:34:04.963Z,18.88
2019-06-08T03:35:05.024Z,18.85
2019-06-08T03:36:05.055Z,18.9
2019-06-08T03:37:04.795Z,18.88
2019-06-08T03:38:05.016Z,18.88
2019-06-08T03:39:05.057Z,18.95
2019-06-08T03:40:05.072Z,18.9
2019-06-08T03:41:05.080Z,18.87
2019-06-08T03:42:19.759Z,18.9
2019-06-08T03:43:06.633Z,18.9
2019-06-08T03:44:05.154Z,18.85
2019-06-08T03:45:05.198Z,18.75
2019-06-08T03:46:05.195Z,18.76
2019-06-08T03:47:05.248Z,18.81
2019-06-08T03:48:19.919Z,18.72
2019-06-08T03:49:05.270Z,18.73
2019-06-08T03:50:05.285Z,18.7
2019-06-08T03:51:05.354Z,18.73
2019-06-08T03:52:05.359Z,18.81
2019-06-08T03:53:05.360Z,18.73
2019-06-08T03:54:20.042Z,18.65
2019-06-08T03:55:05.408Z,18.62
2019-06-08T03:56:05.428Z,18.58
2019-06-08T03:57:05.459Z,18.47
2019-06-08T03:58:20.135Z,18.44
2019-06-08T04:00:15.403Z,18.37
2019-06-08T04:01:05.553Z,18.5
2019-06-08T04:03:05.596Z,18.27
2019-06-08T04:04:20.281Z,18.41
2019-06-08T04:05:05.642Z,18.47
2019-06-08T04:06:05.700Z,18.39
2019-06-08T04:07:05.690Z,18.47
2019-06-08T04:08:05.710Z,18.39
2019-06-08T04:09:05.741Z,18.36
2019-06-08T04:10:05.787Z,18.42
2019-06-08T04:11:05.787Z,18.39
2019-06-08T04:12:05.802Z,18.45
2019-06-08T04:13:05.828Z,18.39
2019-06-08T04:14:20.507Z,18.39
2019-06-08T04:15:05.872Z,18.44
2019-06-08T04:16:05.902Z,18.37
2019-06-08T04:17:05.936Z,18.32
2019-06-08T04:18:05.956Z,18.32
2019-06-08T04:19:05.976Z,18.42
2019-06-08T04:21:06.031Z,18.41
2019-06-08T04:22:06.055Z,18.37
2019-06-08T04:23:06.077Z,18.37
2019-06-08T04:24:06.099Z,18.44
2019-06-08T04:25:20.798Z,18.44
2019-06-08T04:26:06.128Z,18.5
2019-06-08T04:27:06.159Z,18.44
2019-06-08T04:28:06.169Z,18.36
2019-06-08T04:29:20.862Z,18.5
2019-06-08T04:30:06.261Z,18.44
2019-06-08T04:31:06.243Z,18.42
2019-06-08T04:32:06.276Z,18.29
2019-06-08T04:34:06.332Z,18.42
2019-06-08T04:35:21.005Z,18.33
2019-06-08T04:36:06.378Z,18.33
2019-06-08T04:37:06.392Z,18.41
2019-06-08T04:38:06.419Z,18.37
2019-06-08T04:39:06.197Z,18.45
2019-06-08T04:40:06.478Z,18.42
2019-06-08T04:41:06.525Z,18.45
2019-06-08T04:42:06.501Z,18.36
2019-06-08T04:43:06.534Z,18.42
2019-06-08T04:44:06.580Z,18.42
2019-06-08T04:45:06.598Z,18.41
2019-06-08T04:46:06.616Z,18.45
2019-06-08T04:47:21.307Z,18.42
2019-06-08T04:48:09.601Z,18.41
2019-06-08T04:49:06.680Z,18.47
2019-06-08T04:50:26.891Z,18.55
2019-06-08T04:51:06.719Z,18.58
2019-06-08T04:52:06.737Z,18.58
2019-06-08T04:53:06.764Z,18.55
2019-06-08T04:54:06.791Z,18.54
2019-06-08T04:55:06.853Z,18.55
2019-06-08T04:56:06.838Z,18.58
2019-06-08T04:57:06.860Z,18.54
2019-06-08T04:58:06.632Z,18.7
2019-06-08T04:59:06.924Z,18.7
2019-06-08T05:00:16.627Z,18.67
2019-06-08T05:01:21.626Z,18.66
2019-06-08T05:02:06.974Z,18.73
2019-06-08T05:03:07.005Z,18.69
2019-06-08T05:04:07.049Z,18.69
2019-06-08T05:05:07.094Z,18.62
2019-06-08T05:06:07.069Z,18.58
2019-06-08T05:07:07.084Z,18.66
2019-06-08T05:08:07.138Z,18.63
2019-06-08T05:09:07.149Z,18.76
2019-06-08T05:10:07.193Z,18.7
2019-06-08T05:11:07.201Z,18.73
2019-06-08T05:13:07.229Z,19
2019-06-08T05:14:07.255Z,19.11
2019-06-08T05:15:07.274Z,19.14
2019-06-08T05:16:07.296Z,19.02
2019-06-08T05:17:21.991Z,19.14
2019-06-08T05:18:07.353Z,19.11
2019-06-08T05:19:07.367Z,19.23
2019-06-08T05:20:07.393Z,19.1
2019-06-08T05:21:07.460Z,19.21
2019-06-08T05:22:07.439Z,19.08
2019-06-08T05:23:07.483Z,19.07
2019-06-08T05:24:07.497Z,19.07
2019-06-08T05:25:07.521Z,19.07
2019-06-08T05:26:07.531Z,19.08
2019-06-08T05:27:07.560Z,19.19
2019-06-08T05:28:07.598Z,19.16
2019-06-08T05:29:07.612Z,19.37
2019-06-08T05:30:13.583Z,19.37
2019-06-08T05:31:07.649Z,19.46
2019-06-08T05:32:07.675Z,19.54
2019-06-08T05:33:22.365Z,19.71
2019-06-08T05:34:07.478Z,19.78
2019-06-08T05:35:07.755Z,19.71
2019-06-08T05:36:07.777Z,19.56
2019-06-08T05:37:07.800Z,19.62
2019-06-08T05:38:07.826Z,20.02
2019-06-08T05:39:07.907Z,21.19
2019-06-08T05:41:07.894Z,23.48
2019-06-08T05:42:07.911Z,24.46
2019-06-08T05:44:07.971Z,25.65
2019-06-08T05:45:22.661Z,26.17
2019-06-08T05:46:08.018Z,26.09
2019-06-08T05:47:07.817Z,26.43
2019-06-08T05:48:08.071Z,27.06
2019-06-08T05:50:08.146Z,28.18
2019-06-08T05:51:09.238Z,28.66
2019-06-08T05:52:08.181Z,28.55
2019-06-08T05:53:08.259Z,28.8
2019-06-08T05:54:08.237Z,28.85
2019-06-08T05:55:08.268Z,28.81
2019-06-08T05:56:08.327Z,28.59
2019-06-08T05:57:08.327Z,28.64
2019-06-08T05:58:08.360Z,28.68
2019-06-08T05:59:08.387Z,28.61
2019-06-08T06:00:14.051Z,28.55
2019-06-08T06:01:08.456Z,28.81
2019-06-08T06:02:08.488Z,29.57
2019-06-08T06:03:08.520Z,29.34
2019-06-08T06:05:08.577Z,29.65
2019-06-08T06:06:08.607Z,29.87
2019-06-08T06:07:08.640Z,29.83
2019-06-08T06:08:22.751Z,30.11
2019-06-08T06:09:08.702Z,29.98
2019-06-08T06:10:08.736Z,29.86
2019-06-08T06:11:08.770Z,29.73
2019-06-08T06:12:23.474Z,29.51
2019-06-08T06:13:08.839Z,29.67
2019-06-08T06:15:08.908Z,30.54
2019-06-08T06:16:08.965Z,29.64
2019-06-08T06:17:23.633Z,30.27
2019-06-08T06:18:09.029Z,30.22
2019-06-08T06:19:09.032Z,31.06
2019-06-08T06:20:09.067Z,31.23
2019-06-08T06:21:15.812Z,31.84
2019-06-08T06:22:09.133Z,31.78
2019-06-08T06:23:09.176Z,32
2019-06-08T06:24:09.198Z,31.48
2019-06-08T06:26:09.298Z,30.27
2019-06-08T06:27:09.300Z,30.07
2019-06-08T06:28:11.239Z,29.61
2019-06-08T06:29:09.366Z,29.28
2019-06-08T06:30:09.407Z,28.8
2019-06-08T06:31:09.433Z,28.31
2019-06-08T06:32:09.475Z,28
2019-06-08T06:33:09.509Z,27.62
2019-06-08T06:34:09.535Z,27.27
2019-06-08T06:35:09.561Z,26.58
2019-06-08T06:36:24.268Z,26.2
2019-06-08T06:37:09.643Z,26.05
2019-06-08T06:38:09.660Z,25.85
2019-06-08T06:39:09.701Z,25.7
2019-06-08T06:40:09.725Z,25.69
2019-06-08T06:41:09.762Z,25.67
2019-06-08T06:42:09.787Z,25.4
2019-06-08T06:43:09.839Z,25.2
2019-06-08T06:44:09.845Z,24.98
2019-06-08T06:45:09.878Z,24.57
2019-06-08T06:47:09.929Z,24.35
2019-06-08T06:48:09.713Z,24.47
2019-06-08T06:49:09.986Z,24.34
2019-06-08T06:50:10.021Z,24.32
2019-06-08T06:51:22.780Z,24.4
2019-06-08T06:52:24.742Z,24.45
2019-06-08T06:53:10.104Z,24.42
2019-06-08T06:54:10.149Z,24.93
2019-06-08T06:55:10.158Z,25.83
2019-06-08T06:56:10.189Z,27
2019-06-08T06:57:10.257Z,27.77
2019-06-08T06:58:24.919Z,28.31
2019-06-08T06:59:10.274Z,28.34
2019-06-08T07:00:10.363Z,28.67
2019-06-08T07:01:10.368Z,29.05
2019-06-08T07:02:10.366Z,28.78
2019-06-08T07:03:10.414Z,28.62
2019-06-08T07:04:25.090Z,29.08
2019-06-08T07:05:10.457Z,29.19
2019-06-08T07:06:10.489Z,29.52
2019-06-08T07:07:10.582Z,30.13
2019-06-08T07:08:24.966Z,31.13
2019-06-08T07:09:10.583Z,31.61
2019-06-08T07:10:10.649Z,31.62
2019-06-08T07:11:10.646Z,31.35
2019-06-08T07:12:10.673Z,31.32
2019-06-08T07:13:10.711Z,31.36
2019-06-08T07:14:10.741Z,30.88
2019-06-08T07:15:10.775Z,30.65
2019-06-08T07:16:22.585Z,30.89
2019-06-08T07:17:10.839Z,30.49
2019-06-08T07:18:10.879Z,29.51
2019-06-08T07:19:10.918Z,29.27
2019-06-08T07:20:11.133Z,28.4
2019-06-08T07:21:38.573Z,27.74
2019-06-08T07:22:11.003Z,27.47
2019-06-08T07:23:11.032Z,26.88
2019-06-08T07:24:25.732Z,27.04
2019-06-08T07:25:11.112Z,26.73
2019-06-08T07:26:11.227Z,26.65
2019-06-08T07:27:12.390Z,26.62
2019-06-08T07:28:11.202Z,26.21
2019-06-08T07:29:10.984Z,26.09
2019-06-08T07:30:11.313Z,25.9
2019-06-08T07:31:11.302Z,25.72
2019-06-08T07:32:25.986Z,25.35
2019-06-08T07:33:11.343Z,25.14
2019-06-08T07:34:11.381Z,25.1
2019-06-08T07:35:11.399Z,25.17
2019-06-08T07:36:11.427Z,24.87
2019-06-08T07:37:11.214Z,24.22
2019-06-08T07:38:11.546Z,24.4
2019-06-08T07:39:26.184Z,24.35
2019-06-08T07:40:11.551Z,24.42
2019-06-08T07:41:11.577Z,24.58
2019-06-08T07:42:11.601Z,24.64
2019-06-08T07:43:11.134Z,24.84
2019-06-08T07:44:11.660Z,24.78
2019-06-08T07:45:26.359Z,24.65
2019-06-08T07:46:11.714Z,24.68
2019-06-08T07:47:26.424Z,24.58
2019-06-08T07:48:11.872Z,24.45
2019-06-08T07:49:11.834Z,24.45
2019-06-08T07:50:11.843Z,24.52
2019-06-08T07:51:26.524Z,24.15
2019-06-08T07:52:15.535Z,24.22
2019-06-08T07:53:11.908Z,24.02
2019-06-08T07:54:11.938Z,24
2019-06-08T07:55:11.967Z,23.84
2019-06-08T07:56:11.993Z,23.65
2019-06-08T07:57:12.020Z,23.79
2019-06-08T07:58:12.054Z,23.55
2019-06-08T07:59:12.074Z,23.43
2019-06-08T08:00:14.471Z,23.32
2019-06-08T08:01:13.184Z,23.35
2019-06-08T08:02:12.159Z,23.36
2019-06-08T08:03:12.183Z,23.35
2019-06-08T08:05:12.255Z,22.92
2019-06-08T08:06:12.285Z,23.01
2019-06-08T08:07:12.298Z,23.01
2019-06-08T08:08:12.319Z,22.92
2019-06-08T08:09:12.363Z,22.4
2019-06-08T08:10:12.787Z,22.33
2019-06-08T08:11:26.813Z,22.25
2019-06-08T08:12:14.762Z,22.49
2019-06-08T08:13:12.461Z,22.58
2019-06-08T08:14:12.476Z,22.4
2019-06-08T08:15:12.504Z,22.31
2019-06-08T08:16:12.289Z,22.3
2019-06-08T08:17:12.565Z,22.17
2019-06-08T08:18:12.581Z,22.22
2019-06-08T08:19:12.617Z,22.22
2019-06-08T08:20:12.650Z,22.39
2019-06-08T08:22:29.871Z,22.4
2019-06-08T08:23:14.037Z,22.42
2019-06-08T08:24:12.739Z,22.77
2019-06-08T08:25:13.197Z,22.98
2019-06-08T08:26:12.787Z,23.4
2019-06-08T08:27:28.029Z,23.39
2019-06-08T08:28:13.079Z,23.4
2019-06-08T08:29:13.388Z,23.36
2019-06-08T08:30:12.988Z,23.31
2019-06-08T08:31:18.525Z,23.04
2019-06-08T08:32:14.830Z,22.83
2019-06-08T08:33:12.985Z,22.72
2019-06-08T08:34:13.823Z,22.49
2019-06-08T08:35:13.765Z,22.62
2019-06-08T08:36:13.049Z,22.62
2019-06-08T08:37:14.563Z,22.39
2019-06-08T08:38:13.103Z,22.27
2019-06-08T08:40:28.245Z,22.22
2019-06-08T08:41:18.083Z,22.1
2019-06-08T08:42:13.459Z,21.96
2019-06-08T08:43:30.352Z,21.96
2019-06-08T08:44:13.272Z,22.09
2019-06-08T08:45:13.894Z,22
2019-06-08T08:46:13.308Z,22.03
2019-06-08T08:47:13.330Z,22.07
2019-06-08T08:49:18.197Z,22.1
2019-06-08T08:50:13.418Z,22.12
2019-06-08T08:51:13.449Z,22.15
2019-06-08T08:52:17.441Z,22.25
2019-06-08T08:53:13.250Z,22.28
2019-06-08T08:54:13.541Z,22.37
2019-06-08T08:55:13.543Z,22.24
2019-06-08T08:56:13.565Z,22.51
2019-06-08T08:57:13.590Z,22.36
2019-06-08T08:59:30.484Z,22.3
2019-06-08T09:00:13.668Z,22.31
2019-06-08T09:01:13.695Z,22.39
2019-06-08T09:02:20.605Z,22.42
2019-06-08T09:03:39.292Z,22.31
2019-06-08T09:04:13.844Z,22.37
2019-06-08T09:05:28.496Z,22.25
2019-06-08T09:06:13.868Z,22.37
2019-06-08T09:07:18.197Z,22.37
2019-06-08T09:08:13.651Z,22.2
2019-06-08T09:10:18.270Z,21.99
2019-06-08T09:11:13.972Z,22
2019-06-08T09:12:28.667Z,21.9
2019-06-08T09:13:18.544Z,21.86
2019-06-08T09:14:30.526Z,22.06
2019-06-08T09:15:14.078Z,22.09
2019-06-08T09:16:14.089Z,21.9
2019-06-08T09:17:14.173Z,21.86
2019-06-08T09:18:13.886Z,21.91
2019-06-08T09:19:14.165Z,21.99
2019-06-08T09:20:21.831Z,22.1
2019-06-08T09:21:14.207Z,22.1
2019-06-08T09:22:31.205Z,22.02
2019-06-08T09:23:24.164Z,21.99
2019-06-08T09:24:14.685Z,22
2019-06-08T09:25:20.536Z,21.9
2019-06-08T09:26:20.027Z,21.82
2019-06-08T09:27:14.424Z,21.8
2019-06-08T09:28:13.900Z,21.67
2019-06-08T09:29:18.705Z,21.59
2019-06-08T09:30:14.453Z,21.56
2019-06-08T09:31:18.632Z,21.34
2019-06-08T09:32:14.493Z,21.37
2019-06-08T09:34:22.053Z,21.5
2019-06-08T09:36:14.589Z,21.43
2019-06-08T09:37:14.614Z,21.49
2019-06-08T09:38:18.348Z,21.31
2019-06-08T09:40:14.720Z,21.28
2019-06-08T09:41:14.706Z,21.44
2019-06-08T09:42:14.758Z,21.43
2019-06-08T09:43:18.871Z,21.5
2019-06-08T09:44:18.456Z,21.58
2019-06-08T09:45:14.819Z,21.67
2019-06-08T09:46:30.305Z,22.05
2019-06-08T09:47:20.457Z,22.07
2019-06-08T09:48:14.637Z,22.25
2019-06-08T09:50:14.944Z,22.73
2019-06-08T09:51:29.626Z,22.88
2019-06-08T09:53:47.602Z,22.64
2019-06-08T09:54:20.607Z,22.52
2019-06-08T09:55:14.884Z,22.58
2019-06-08T09:56:18.250Z,22.55
2019-06-08T09:57:15.137Z,22.73
2019-06-08T09:58:18.019Z,22.62
2019-06-08T09:59:20.958Z,22.49
2019-06-08T10:00:29.132Z,22.33
2019-06-08T10:01:18.403Z,22.31
2019-06-08T10:02:30.840Z,22.14
2019-06-08T10:03:18.395Z,21.98
2019-06-08T10:04:15.312Z,21.96
2019-06-08T10:05:15.318Z,21.9
2019-06-08T10:06:18.190Z,21.92
2019-06-08T10:07:15.369Z,21.84
2019-06-08T10:09:15.427Z,21.58
2019-06-08T10:10:17.979Z,21.46
2019-06-08T10:11:15.504Z,21.43
2019-06-08T10:12:30.149Z,21.52
2019-06-08T10:13:15.630Z,21.42
2019-06-08T10:15:17.725Z,21.69
2019-06-08T10:16:18.323Z,21.8
2019-06-08T10:18:30.958Z,22.2
2019-06-08T10:19:18.473Z,22.17
2019-06-08T10:20:17.754Z,22.42
2019-06-08T10:21:18.225Z,22.57
2019-06-08T10:22:30.405Z,22.72
2019-06-08T10:23:38.526Z,22.83
2019-06-08T10:24:15.832Z,22.88
2019-06-08T10:25:16.365Z,23.05
2019-06-08T10:26:17.804Z,23.32
2019-06-08T10:27:18.730Z,23.33
2019-06-08T10:28:23.984Z,23.65
2019-06-08T10:29:18.235Z,23.78
2019-06-08T10:30:15.959Z,23.8
2019-06-08T10:31:17.552Z,23.78
2019-06-08T10:32:17.878Z,23.51
2019-06-08T10:33:18.251Z,23.28
2019-06-08T10:34:32.118Z,23.27
2019-06-08T10:35:18.450Z,23.25
2019-06-08T10:36:18.333Z,23.16
2019-06-08T10:37:20.998Z,23.01
2019-06-08T10:38:18.060Z,22.97
2019-06-08T10:39:16.910Z,22.95
2019-06-08T10:40:18.568Z,22.85
2019-06-08T10:41:24.368Z,22.7
2019-06-08T10:43:17.458Z,22.51
2019-06-08T10:44:20.732Z,22.4
2019-06-08T10:46:23.409Z,22.07
2019-06-08T10:47:16.912Z,22.09
2019-06-08T10:48:17.891Z,21.98
2019-06-08T10:49:31.453Z,21.68
2019-06-08T10:50:21.676Z,21.92
2019-06-08T10:52:19.938Z,22.33
2019-06-08T10:53:19.060Z,22.35
2019-06-08T10:54:17.394Z,22.51
2019-06-08T10:55:17.984Z,22.6
2019-06-08T10:56:18.803Z,22.57
2019-06-08T10:57:18.214Z,22.72
2019-06-08T10:58:19.330Z,22.72
2019-06-08T10:59:18.474Z,22.86
2019-06-08T11:00:30.574Z,23.17
2019-06-08T11:01:18.738Z,23.19
2019-06-08T11:02:21.165Z,23.04
2019-06-08T11:03:16.812Z,23.02
2019-06-08T11:04:31.490Z,22.98
2019-06-08T11:05:20.583Z,22.98
2019-06-08T11:06:18.717Z,22.98
2019-06-08T11:07:20.266Z,23.25
2019-06-08T11:08:21.205Z,23.54
2019-06-08T11:09:21.560Z,23.79
2019-06-08T11:10:19.071Z,24.12
2019-06-08T11:11:22.069Z,24.43
2019-06-08T11:12:20.794Z,24.71
2019-06-08T11:13:21.294Z,24.93
2019-06-08T11:14:22.708Z,24.96
2019-06-08T11:15:17.088Z,25.05
2019-06-08T11:16:20.444Z,25.03
2019-06-08T11:18:20.932Z,24.67
2019-06-08T11:19:20.430Z,24.67
2019-06-08T11:20:18.585Z,24.73
2019-06-08T11:21:31.910Z,24.71
2019-06-08T11:22:20.606Z,24.61
2019-06-08T11:23:18.810Z,24.8
2019-06-08T11:24:31.275Z,24.4
2019-06-08T11:25:22.420Z,24.08
2019-06-08T11:26:28.883Z,23.76
2019-06-08T11:27:18.710Z,23.73
2019-06-08T11:28:21.032Z,23.87
2019-06-08T11:29:21.251Z,23.94
2019-06-08T11:30:32.597Z,24.03
2019-06-08T11:31:22.161Z,24.1
2019-06-08T11:32:18.342Z,23.93
2019-06-08T11:33:17.560Z,24.03
2019-06-08T11:35:20.100Z,23.84
2019-06-08T11:36:21.436Z,24.24
2019-06-08T11:37:32.336Z,24.45
2019-06-08T11:38:20.398Z,24.57
2019-06-08T11:39:18.688Z,24.6
2019-06-08T11:40:22.844Z,24.96
2019-06-08T11:41:22.878Z,24.9
2019-06-08T11:42:19.062Z,24.96
2019-06-08T11:43:18.367Z,24.91
2019-06-08T11:44:20.657Z,24.99
2019-06-08T11:45:20.240Z,24.88
2019-06-08T11:46:32.552Z,24.95
2019-06-08T11:47:20.665Z,24.96
2019-06-08T11:48:20.278Z,25.02
2019-06-08T11:49:21.154Z,25.21
2019-06-08T11:50:20.596Z,25.32
2019-06-08T11:51:18.098Z,25.28
2019-06-08T11:52:20.826Z,25.25
2019-06-08T11:53:32.482Z,25.4
2019-06-08T11:54:42.892Z,25.47
2019-06-08T11:55:18.159Z,25.54
2019-06-08T11:56:20.654Z,25.9
2019-06-08T11:57:20.134Z,25.98
2019-06-08T11:58:24.529Z,26.18
2019-06-08T11:59:19.232Z,26.15
2019-06-08T12:00:33.422Z,25.92
2019-06-08T12:01:21.083Z,25.72
2019-06-08T12:02:20.974Z,25.15
2019-06-08T12:03:32.995Z,24.9
2019-06-08T12:04:33.020Z,25.24
2019-06-08T12:05:20.523Z,25.13
2019-06-08T12:06:23.523Z,25.08
2019-06-08T12:07:18.839Z,24.99
2019-06-08T12:08:22.699Z,24.8
2019-06-08T12:09:33.150Z,24.49
2019-06-08T12:10:20.265Z,24.37
2019-06-08T12:11:38.449Z,24.4
2019-06-08T12:12:23.920Z,24.61
2019-06-08T12:13:20.188Z,24.67
2019-06-08T12:14:20.187Z,24.61
2019-06-08T12:15:23.672Z,24.37
2019-06-08T12:16:37.682Z,24.15
2019-06-08T12:17:27.146Z,24.32
2019-06-08T12:18:20.594Z,24.32
2019-06-08T12:19:37.671Z,24.27
2019-06-08T12:20:27.956Z,24.15
2019-06-08T12:21:21.059Z,24.32
2019-06-08T12:22:21.818Z,24.49
2019-06-08T12:23:18.947Z,24.49
2019-06-08T12:24:43.862Z,24.57
2019-06-08T12:25:19.016Z,24.73
2019-06-08T12:26:19.376Z,24.84
2019-06-08T12:27:40.066Z,24.8
2019-06-08T12:28:20.306Z,24.68
2019-06-08T12:29:21.421Z,24.64
2019-06-08T12:30:29.610Z,24.55
2019-06-08T12:31:28.063Z,24.62
2019-06-08T12:32:22.562Z,24.49
2019-06-08T12:34:21.156Z,24.42
2019-06-08T12:35:20.726Z,24.69
2019-06-08T12:36:23.212Z,24.69
2019-06-08T12:37:27.507Z,24.8
2019-06-08T12:40:23.300Z,25.69
2019-06-08T12:41:21.836Z,25.69
2019-06-08T12:42:28.320Z,25.95
2019-06-08T12:43:22.537Z,25.69
2019-06-08T12:44:26.709Z,25.38
2019-06-08T12:45:22.672Z,25.52
2019-06-08T12:46:23.910Z,25.77
2019-06-08T12:48:28.686Z,25.67
2019-06-08T12:49:23.046Z,25.7
2019-06-08T12:50:22.473Z,25.8
2019-06-08T12:51:23.440Z,25.52
2019-06-08T12:54:23.129Z,24.95
2019-06-08T12:55:27.985Z,25.1
2019-06-08T12:56:34.378Z,25.27
2019-06-08T12:57:24.359Z,25.17
2019-06-08T12:58:24.256Z,25.1
2019-06-08T12:59:28.140Z,25.17
2019-06-08T13:00:22.472Z,25.15
2019-06-08T13:01:21.287Z,25.02
2019-06-08T13:02:28.027Z,24.69
2019-06-08T13:03:20.857Z,24.76
2019-06-08T13:04:28.428Z,25.02
2019-06-08T13:05:27.481Z,25.13
2019-06-08T13:06:22.899Z,25.33
2019-06-08T13:07:21.491Z,25.09
2019-06-08T13:08:23.913Z,24.93
2019-06-08T13:09:23.401Z,24.98
2019-06-08T13:10:27.713Z,24.83
2019-06-08T13:11:38.153Z,24.88
2019-06-08T13:12:34.798Z,25.02
2019-06-08T13:13:28.187Z,24.93
2019-06-08T13:14:23.504Z,25.03
2019-06-08T13:15:24.519Z,25.05
2019-06-08T13:16:30.741Z,25.05
2019-06-08T13:17:23.828Z,24.73
2019-06-08T13:18:23.721Z,24.73
2019-06-08T13:19:21.001Z,24.77
2019-06-08T13:20:25.226Z,25.03
2019-06-08T13:21:38.479Z,25.06
2019-06-08T13:22:31.428Z,25.05
2019-06-08T13:24:21.583Z,25.23
2019-06-08T13:25:48.001Z,25.43
2019-06-08T13:26:33.481Z,25.46
2019-06-08T13:27:28.066Z,25.28
2019-06-08T13:28:34.966Z,25.17
2019-06-08T13:29:23.063Z,25.05
2019-06-08T13:30:32.275Z,24.9
2019-06-08T13:31:28.671Z,25
2019-06-08T13:32:24.379Z,25.06
2019-06-08T13:33:21.090Z,25.17
2019-06-08T13:34:28.391Z,25.3
2019-06-08T13:35:24.929Z,25.38
2019-06-08T13:36:29.591Z,25.32
2019-06-08T13:37:24.616Z,25.17
2019-06-08T13:39:27.872Z,25.23
2019-06-08T13:40:26.523Z,25.36
2019-06-08T13:41:31.388Z,25.39
2019-06-08T13:42:27.833Z,25.33
2019-06-08T13:43:25.227Z,25.33
2019-06-08T13:44:37.675Z,25.24
2019-06-08T13:45:27.758Z,25.18
2019-06-08T13:46:28.070Z,25.1
2019-06-08T13:47:25.386Z,25.08
2019-06-08T13:48:25.395Z,24.93